Rotorua, New Zealand
Current Conditions -  °F | °C
As of 3:00 PM on Friday 28 Nov 2014 (Local Time) from NZAA Reporting Station
Broken Clouds Broken Clouds  
Wind Chill: 63°   Ceiling: 4300
Heat Index: 63°   Visibility: 6mi
Dew Point: 52°   Wind: 20mph
Humidity: 68%   Direction: 250°WSW
Pressure: 29.77"   Gusts: NA
Location:  38.14°S, 176.24°E
Report Text: NZAA 280300Z AUTO 25017KT 9999 FEW026/// SCT032/// BKN043///17/11 Q1008 NOSIG
Loading
Personal Weather Stations






























Interactive Weather Map New forecast layout! Learn more

10-Day Weather Forecast

Advertisements
Track Severe Weather on mobile